sensor_id;sensor_type;location;lat;lon;timestamp;P1;durP1;ratioP1;P2;durP2;ratioP2
37891;SDS011;45797;47.466;9.486;2023-05-18T00:01:17;4.97;;;1.85;;
37891;SDS011;45797;47.466;9.486;2023-05-18T00:06:31;4.80;;;2.00;;
37891;SDS011;45797;47.466;9.486;2023-05-18T00:11:39;4.70;;;1.83;;
37891;SDS011;45797;47.466;9.486;2023-05-18T00:16:39;3.75;;;1.85;;
37891;SDS011;45797;47.466;9.486;2023-05-18T00:21:45;3.45;;;1.58;;
37891;SDS011;45797;47.466;9.486;2023-05-18T00:26:47;4.03;;;1.98;;
37891;SDS011;45797;47.466;9.486;2023-05-18T00:31:55;4.65;;;1.80;;
37891;SDS011;45797;47.466;9.486;2023-05-18T00:36:56;5.03;;;2.05;;
37891;SDS011;45797;47.466;9.486;2023-05-18T00:41:57;6.93;;;1.92;;
37891;SDS011;45797;47.466;9.486;2023-05-18T00:47:00;6.10;;;1.83;;
37891;SDS011;45797;47.466;9.486;2023-05-18T01:07:43;5.10;;;1.70;;
37891;SDS011;45797;47.466;9.486;2023-05-18T01:18:16;4.47;;;1.88;;
37891;SDS011;45797;47.466;9.486;2023-05-18T01:34:34;4.00;;;1.90;;
37891;SDS011;45797;47.466;9.486;2023-05-18T01:39:34;4.10;;;1.60;;
37891;SDS011;45797;47.466;9.486;2023-05-18T01:44:50;4.70;;;1.60;;
37891;SDS011;45797;47.466;9.486;2023-05-18T01:55:38;4.85;;;1.80;;
37891;SDS011;45797;47.466;9.486;2023-05-18T02:00:50;3.78;;;1.60;;
37891;SDS011;45797;47.466;9.486;2023-05-18T02:05:51;4.90;;;1.77;;
37891;SDS011;45797;47.466;9.486;2023-05-18T02:10:53;4.63;;;1.67;;
37891;SDS011;45797;47.466;9.486;2023-05-18T02:16:04;3.00;;;1.77;;
37891;SDS011;45797;47.466;9.486;2023-05-18T02:26:18;5.97;;;1.33;;
37891;SDS011;45797;47.466;9.486;2023-05-18T02:31:25;4.25;;;1.60;;
37891;SDS011;45797;47.466;9.486;2023-05-18T02:36:30;4.72;;;1.55;;
37891;SDS011;45797;47.466;9.486;2023-05-18T02:41:36;4.75;;;1.80;;
37891;SDS011;45797;47.466;9.486;2023-05-18T02:51:42;4.78;;;1.58;;
37891;SDS011;45797;47.466;9.486;2023-05-18T02:56:43;3.58;;;1.67;;
37891;SDS011;45797;47.466;9.486;2023-05-18T03:02:01;3.80;;;1.77;;
37891;SDS011;45797;47.466;9.486;2023-05-18T03:07:02;2.95;;;1.35;;
37891;SDS011;45797;47.466;9.486;2023-05-18T03:12:03;4.72;;;1.70;;
37891;SDS011;45797;47.466;9.486;2023-05-18T03:17:12;4.68;;;1.90;;
37891;SDS011;45797;47.466;9.486;2023-05-18T03:22:14;3.60;;;1.45;;
37891;SDS011;45797;47.466;9.486;2023-05-18T03:27:16;4.75;;;1.95;;
37891;SDS011;45797;47.466;9.486;2023-05-18T03:32:18;3.38;;;1.38;;
37891;SDS011;45797;47.466;9.486;2023-05-18T03:37:20;3.67;;;1.65;;
37891;SDS011;45797;47.466;9.486;2023-05-18T03:42:32;4.38;;;1.58;;
37891;SDS011;45797;47.466;9.486;2023-05-18T03:47:33;3.25;;;1.50;;
37891;SDS011;45797;47.466;9.486;2023-05-18T04:02:45;4.70;;;1.58;;
37891;SDS011;45797;47.466;9.486;2023-05-18T04:07:50;4.38;;;1.73;;
37891;SDS011;45797;47.466;9.486;2023-05-18T04:17:53;3.85;;;1.83;;
37891;SDS011;45797;47.466;9.486;2023-05-18T04:23:09;4.25;;;1.90;;
37891;SDS011;45797;47.466;9.486;2023-05-18T04:28:11;4.20;;;1.95;;
37891;SDS011;45797;47.466;9.486;2023-05-18T04:33:15;4.95;;;1.80;;
37891;SDS011;45797;47.466;9.486;2023-05-18T04:38:20;4.10;;;1.98;;
37891;SDS011;45797;47.466;9.486;2023-05-18T04:43:25;3.92;;;2.15;;
37891;SDS011;45797;47.466;9.486;2023-05-18T04:48:29;3.97;;;2.17;;
37891;SDS011;45797;47.466;9.486;2023-05-18T04:53:30;3.63;;;2.00;;
37891;SDS011;45797;47.466;9.486;2023-05-18T04:58:38;5.68;;;2.13;;
37891;SDS011;45797;47.466;9.486;2023-05-18T05:03:40;5.38;;;2.35;;
37891;SDS011;45797;47.466;9.486;2023-05-18T05:08:49;6.85;;;1.95;;
37891;SDS011;45797;47.466;9.486;2023-05-18T05:13:51;5.55;;;2.25;;
37891;SDS011;45797;47.466;9.486;2023-05-18T05:18:51;5.88;;;2.40;;
37891;SDS011;45797;47.466;9.486;2023-05-18T05:23:53;5.05;;;2.17;;
37891;SDS011;45797;47.466;9.486;2023-05-18T05:29:00;5.63;;;2.20;;
37891;SDS011;45797;47.466;9.486;2023-05-18T05:34:05;5.88;;;2.33;;
37891;SDS011;45797;47.466;9.486;2023-05-18T05:44:19;7.05;;;2.78;;
37891;SDS011;45797;47.466;9.486;2023-05-18T05:49:26;4.63;;;2.50;;
37891;SDS011;45797;47.466;9.486;2023-05-18T05:54:28;5.78;;;2.70;;
37891;SDS011;45797;47.466;9.486;2023-05-18T05:59:29;6.47;;;2.45;;
37891;SDS011;45797;47.466;9.486;2023-05-18T06:04:31;5.03;;;2.45;;
37891;SDS011;45797;47.466;9.486;2023-05-18T06:09:34;10.98;;;4.05;;
37891;SDS011;45797;47.466;9.486;2023-05-18T06:14:35;5.45;;;2.80;;
37891;SDS011;45797;47.466;9.486;2023-05-18T06:25:07;7.70;;;2.72;;
37891;SDS011;45797;47.466;9.486;2023-05-18T06:30:42;5.35;;;2.55;;
37891;SDS011;45797;47.466;9.486;2023-05-18T06:36:07;6.68;;;2.65;;
37891;SDS011;45797;47.466;9.486;2023-05-18T06:41:10;6.18;;;2.22;;
37891;SDS011;45797;47.466;9.486;2023-05-18T06:46:17;7.22;;;3.00;;
37891;SDS011;45797;47.466;9.486;2023-05-18T06:51:25;4.22;;;2.20;;
37891;SDS011;45797;47.466;9.486;2023-05-18T06:56:29;7.25;;;2.42;;
37891;SDS011;45797;47.466;9.486;2023-05-18T07:01:31;5.60;;;2.55;;
37891;SDS011;45797;47.466;9.486;2023-05-18T07:06:36;5.05;;;2.60;;
37891;SDS011;45797;47.466;9.486;2023-05-18T07:16:45;5.80;;;2.63;;
37891;SDS011;45797;47.466;9.486;2023-05-18T07:26:52;4.35;;;1.98;;
37891;SDS011;45797;47.466;9.486;2023-05-18T07:32:08;5.68;;;2.65;;
37891;SDS011;45797;47.466;9.486;2023-05-18T07:37:08;5.03;;;2.30;;
37891;SDS011;45797;47.466;9.486;2023-05-18T07:42:09;6.13;;;2.33;;
37891;SDS011;45797;47.466;9.486;2023-05-18T07:47:12;5.35;;;2.30;;
37891;SDS011;45797;47.466;9.486;2023-05-18T07:52:12;6.30;;;2.58;;
37891;SDS011;45797;47.466;9.486;2023-05-18T08:07:47;6.93;;;2.55;;
37891;SDS011;45797;47.466;9.486;2023-05-18T08:12:49;3.63;;;1.98;;
37891;SDS011;45797;47.466;9.486;2023-05-18T08:17:49;4.50;;;2.10;;
37891;SDS011;45797;47.466;9.486;2023-05-18T08:22:58;3.85;;;1.98;;
37891;SDS011;45797;47.466;9.486;2023-05-18T08:33:03;5.00;;;2.35;;
37891;SDS011;45797;47.466;9.486;2023-05-18T08:38:06;5.88;;;2.20;;
37891;SDS011;45797;47.466;9.486;2023-05-18T08:43:06;4.78;;;2.50;;
37891;SDS011;45797;47.466;9.486;2023-05-18T08:48:20;5.53;;;2.50;;
37891;SDS011;45797;47.466;9.486;2023-05-18T08:53:28;6.32;;;2.45;;
37891;SDS011;45797;47.466;9.486;2023-05-18T09:03:36;7.95;;;2.42;;
37891;SDS011;45797;47.466;9.486;2023-05-18T09:08:39;5.03;;;2.50;;
37891;SDS011;45797;47.466;9.486;2023-05-18T09:13:41;6.63;;;2.92;;
37891;SDS011;45797;47.466;9.486;2023-05-18T09:18:58;5.70;;;2.92;;
37891;SDS011;45797;47.466;9.486;2023-05-18T09:24:10;6.40;;;2.40;;
37891;SDS011;45797;47.466;9.486;2023-05-18T09:29:28;5.97;;;2.45;;
37891;SDS011;45797;47.466;9.486;2023-05-18T09:34:40;6.45;;;2.50;;
37891;SDS011;45797;47.466;9.486;2023-05-18T09:39:42;4.80;;;2.38;;
37891;SDS011;45797;47.466;9.486;2023-05-18T09:44:43;4.78;;;2.38;;
37891;SDS011;45797;47.466;9.486;2023-05-18T09:55:14;7.05;;;2.42;;
37891;SDS011;45797;47.466;9.486;2023-05-18T10:00:17;4.60;;;2.35;;
37891;SDS011;45797;47.466;9.486;2023-05-18T10:15:58;6.65;;;2.22;;
37891;SDS011;45797;47.466;9.486;2023-05-18T10:21:01;4.88;;;2.15;;
37891;SDS011;45797;47.466;9.486;2023-05-18T10:26:05;3.58;;;1.80;;
37891;SDS011;45797;47.466;9.486;2023-05-18T10:31:08;4.38;;;1.83;;
37891;SDS011;45797;47.466;9.486;2023-05-18T10:36:10;2.83;;;1.80;;
37891;SDS011;45797;47.466;9.486;2023-05-18T10:41:12;3.42;;;1.73;;
37891;SDS011;45797;47.466;9.486;2023-05-18T10:46:14;4.82;;;2.20;;
37891;SDS011;45797;47.466;9.486;2023-05-18T10:51:27;5.78;;;2.10;;
37891;SDS011;45797;47.466;9.486;2023-05-18T10:56:29;3.38;;;1.95;;
37891;SDS011;45797;47.466;9.486;2023-05-18T11:01:38;4.60;;;2.03;;
37891;SDS011;45797;47.466;9.486;2023-05-18T11:12:10;5.13;;;2.00;;
37891;SDS011;45797;47.466;9.486;2023-05-18T11:23:06;5.28;;;2.13;;
37891;SDS011;45797;47.466;9.486;2023-05-18T11:28:09;4.68;;;2.03;;
37891;SDS011;45797;47.466;9.486;2023-05-18T11:33:13;4.32;;;2.17;;
37891;SDS011;45797;47.466;9.486;2023-05-18T11:49:22;3.70;;;1.83;;
37891;SDS011;45797;47.466;9.486;2023-05-18T11:54:24;3.22;;;1.55;;
37891;SDS011;45797;47.466;9.486;2023-05-18T11:59:29;3.03;;;1.70;;
37891;SDS011;45797;47.466;9.486;2023-05-18T12:04:51;4.68;;;1.60;;
37891;SDS011;45797;47.466;9.486;2023-05-18T12:09:57;3.55;;;1.58;;
37891;SDS011;45797;47.466;9.486;2023-05-18T12:15:03;2.78;;;1.33;;
37891;SDS011;45797;47.466;9.486;2023-05-18T12:31:02;3.50;;;1.50;;
37891;SDS011;45797;47.466;9.486;2023-05-18T12:36:14;2.78;;;1.40;;
37891;SDS011;45797;47.466;9.486;2023-05-18T12:46:42;2.95;;;1.38;;
37891;SDS011;45797;47.466;9.486;2023-05-18T12:51:43;3.50;;;1.52;;
37891;SDS011;45797;47.466;9.486;2023-05-18T12:56:53;5.03;;;1.48;;
37891;SDS011;45797;47.466;9.486;2023-05-18T13:02:01;4.80;;;1.70;;
37891;SDS011;45797;47.466;9.486;2023-05-18T13:07:02;4.38;;;1.45;;
37891;SDS011;45797;47.466;9.486;2023-05-18T13:12:02;4.15;;;1.50;;
37891;SDS011;45797;47.466;9.486;2023-05-18T13:17:05;4.28;;;1.40;;
37891;SDS011;45797;47.466;9.486;2023-05-18T13:22:06;3.00;;;1.50;;
37891;SDS011;45797;47.466;9.486;2023-05-18T13:27:07;2.67;;;1.30;;
37891;SDS011;45797;47.466;9.486;2023-05-18T13:32:17;3.22;;;1.30;;
37891;SDS011;45797;47.466;9.486;2023-05-18T13:42:27;4.47;;;1.70;;
37891;SDS011;45797;47.466;9.486;2023-05-18T13:47:28;3.60;;;1.73;;
37891;SDS011;45797;47.466;9.486;2023-05-18T13:52:28;5.47;;;1.67;;
37891;SDS011;45797;47.466;9.486;2023-05-18T13:57:29;2.60;;;1.50;;
37891;SDS011;45797;47.466;9.486;2023-05-18T14:02:37;2.80;;;1.50;;
37891;SDS011;45797;47.466;9.486;2023-05-18T14:07:41;2.70;;;1.40;;
37891;SDS011;45797;47.466;9.486;2023-05-18T14:12:44;4.78;;;1.85;;
37891;SDS011;45797;47.466;9.486;2023-05-18T14:17:45;5.25;;;1.70;;
37891;SDS011;45797;47.466;9.486;2023-05-18T14:22:45;2.92;;;1.40;;
37891;SDS011;45797;47.466;9.486;2023-05-18T14:27:52;3.95;;;1.50;;
37891;SDS011;45797;47.466;9.486;2023-05-18T14:32:52;4.25;;;1.40;;
37891;SDS011;45797;47.466;9.486;2023-05-18T14:37:52;3.70;;;1.70;;
37891;SDS011;45797;47.466;9.486;2023-05-18T14:42:56;3.22;;;1.50;;
37891;SDS011;45797;47.466;9.486;2023-05-18T14:53:11;3.33;;;1.63;;
37891;SDS011;45797;47.466;9.486;2023-05-18T14:58:20;3.95;;;1.63;;
37891;SDS011;45797;47.466;9.486;2023-05-18T15:03:21;8.18;;;2.00;;
37891;SDS011;45797;47.466;9.486;2023-05-18T15:08:22;3.30;;;1.60;;
37891;SDS011;45797;47.466;9.486;2023-05-18T15:13:24;3.53;;;1.70;;
37891;SDS011;45797;47.466;9.486;2023-05-18T15:18:42;4.00;;;1.90;;
37891;SDS011;45797;47.466;9.486;2023-05-18T15:23:48;3.28;;;1.80;;
37891;SDS011;45797;47.466;9.486;2023-05-18T15:28:48;3.72;;;1.90;;
37891;SDS011;45797;47.466;9.486;2023-05-18T15:33:49;4.60;;;1.83;;
37891;SDS011;45797;47.466;9.486;2023-05-18T15:38:50;3.25;;;1.90;;
37891;SDS011;45797;47.466;9.486;2023-05-18T15:49:11;4.60;;;1.60;;
37891;SDS011;45797;47.466;9.486;2023-05-18T15:54:13;5.47;;;1.67;;
37891;SDS011;45797;47.466;9.486;2023-05-18T15:59:13;3.45;;;2.00;;
37891;SDS011;45797;47.466;9.486;2023-05-18T16:04:16;3.88;;;2.10;;
37891;SDS011;45797;47.466;9.486;2023-05-18T16:09:23;3.20;;;1.70;;
37891;SDS011;45797;47.466;9.486;2023-05-18T16:14:39;3.50;;;1.80;;
37891;SDS011;45797;47.466;9.486;2023-05-18T16:19:39;6.10;;;2.05;;
37891;SDS011;45797;47.466;9.486;2023-05-18T16:24:41;5.07;;;1.80;;
37891;SDS011;45797;47.466;9.486;2023-05-18T16:29:42;3.53;;;1.83;;
37891;SDS011;45797;47.466;9.486;2023-05-18T16:34:44;6.00;;;2.47;;
37891;SDS011;45797;47.466;9.486;2023-05-18T16:39:44;5.50;;;2.38;;
37891;SDS011;45797;47.466;9.486;2023-05-18T16:44:46;6.35;;;2.00;;
37891;SDS011;45797;47.466;9.486;2023-05-18T16:49:47;5.40;;;2.10;;
37891;SDS011;45797;47.466;9.486;2023-05-18T16:54:48;5.13;;;2.20;;
37891;SDS011;45797;47.466;9.486;2023-05-18T17:04:55;5.50;;;2.17;;
37891;SDS011;45797;47.466;9.486;2023-05-18T17:09:56;6.45;;;2.47;;
37891;SDS011;45797;47.466;9.486;2023-05-18T17:14:56;6.15;;;2.05;;
37891;SDS011;45797;47.466;9.486;2023-05-18T17:20:08;6.13;;;2.50;;
37891;SDS011;45797;47.466;9.486;2023-05-18T17:25:09;5.15;;;2.53;;
37891;SDS011;45797;47.466;9.486;2023-05-18T17:30:11;5.78;;;2.53;;
37891;SDS011;45797;47.466;9.486;2023-05-18T17:35:17;6.60;;;2.00;;
37891;SDS011;45797;47.466;9.486;2023-05-18T17:40:23;4.30;;;1.92;;
37891;SDS011;45797;47.466;9.486;2023-05-18T17:45:30;4.78;;;1.95;;
37891;SDS011;45797;47.466;9.486;2023-05-18T17:50:46;6.03;;;2.25;;
37891;SDS011;45797;47.466;9.486;2023-05-18T17:55:52;4.32;;;2.30;;
37891;SDS011;45797;47.466;9.486;2023-05-18T18:01:10;4.32;;;2.10;;
37891;SDS011;45797;47.466;9.486;2023-05-18T18:06:18;4.82;;;2.05;;
37891;SDS011;45797;47.466;9.486;2023-05-18T18:16:26;4.72;;;2.00;;
37891;SDS011;45797;47.466;9.486;2023-05-18T18:21:28;3.80;;;1.80;;
37891;SDS011;45797;47.466;9.486;2023-05-18T18:26:28;4.82;;;2.00;;
37891;SDS011;45797;47.466;9.486;2023-05-18T18:36:48;4.15;;;2.03;;
37891;SDS011;45797;47.466;9.486;2023-05-18T18:46:53;3.60;;;1.98;;
37891;SDS011;45797;47.466;9.486;2023-05-18T18:51:55;4.70;;;2.17;;
37891;SDS011;45797;47.466;9.486;2023-05-18T18:56:57;4.25;;;2.00;;
37891;SDS011;45797;47.466;9.486;2023-05-18T19:01:58;4.20;;;2.10;;
37891;SDS011;45797;47.466;9.486;2023-05-18T19:07:00;6.40;;;2.10;;
37891;SDS011;45797;47.466;9.486;2023-05-18T19:12:08;4.38;;;2.13;;
37891;SDS011;45797;47.466;9.486;2023-05-18T19:17:15;4.03;;;2.00;;
37891;SDS011;45797;47.466;9.486;2023-05-18T19:22:23;4.60;;;2.40;;
37891;SDS011;45797;47.466;9.486;2023-05-18T19:27:24;5.57;;;2.33;;
37891;SDS011;45797;47.466;9.486;2023-05-18T19:32:25;7.50;;;2.17;;
37891;SDS011;45797;47.466;9.486;2023-05-18T19:42:29;4.18;;;2.15;;
37891;SDS011;45797;47.466;9.486;2023-05-18T19:47:38;6.18;;;2.08;;
37891;SDS011;45797;47.466;9.486;2023-05-18T19:52:45;5.13;;;2.10;;
37891;SDS011;45797;47.466;9.486;2023-05-18T20:08:03;4.35;;;2.08;;
37891;SDS011;45797;47.466;9.486;2023-05-18T20:23:24;4.22;;;2.35;;
37891;SDS011;45797;47.466;9.486;2023-05-18T20:28:26;3.97;;;1.70;;
37891;SDS011;45797;47.466;9.486;2023-05-18T20:33:37;4.43;;;2.08;;
37891;SDS011;45797;47.466;9.486;2023-05-18T20:38:47;3.45;;;1.90;;
37891;SDS011;45797;47.466;9.486;2023-05-18T20:43:48;5.07;;;2.00;;
37891;SDS011;45797;47.466;9.486;2023-05-18T20:48:50;5.45;;;2.20;;
37891;SDS011;45797;47.466;9.486;2023-05-18T20:53:55;3.50;;;1.90;;
37891;SDS011;45797;47.466;9.486;2023-05-18T20:58:56;3.10;;;1.85;;
37891;SDS011;45797;47.466;9.486;2023-05-18T21:03:59;4.38;;;2.33;;
37891;SDS011;45797;47.466;9.486;2023-05-18T21:09:02;3.70;;;2.17;;
37891;SDS011;45797;47.466;9.486;2023-05-18T21:14:11;7.53;;;1.90;;
37891;SDS011;45797;47.466;9.486;2023-05-18T21:19:12;4.10;;;1.95;;
37891;SDS011;45797;47.466;9.486;2023-05-18T21:24:13;4.72;;;2.38;;
37891;SDS011;45797;47.466;9.486;2023-05-18T21:29:14;3.45;;;2.00;;
37891;SDS011;45797;47.466;9.486;2023-05-18T21:34:23;3.67;;;2.17;;
37891;SDS011;45797;47.466;9.486;2023-05-18T21:39:23;4.40;;;2.13;;
37891;SDS011;45797;47.466;9.486;2023-05-18T21:44:23;3.42;;;1.80;;
37891;SDS011;45797;47.466;9.486;2023-05-18T21:49:32;7.32;;;2.20;;
37891;SDS011;45797;47.466;9.486;2023-05-18T21:54:32;4.10;;;2.03;;
37891;SDS011;45797;47.466;9.486;2023-05-18T21:59:48;4.97;;;2.10;;
37891;SDS011;45797;47.466;9.486;2023-05-18T22:04:50;4.00;;;1.90;;
37891;SDS011;45797;47.466;9.486;2023-05-18T22:15:00;3.63;;;1.90;;
37891;SDS011;45797;47.466;9.486;2023-05-18T22:20:02;4.22;;;2.15;;
37891;SDS011;45797;47.466;9.486;2023-05-18T22:25:05;3.75;;;1.83;;
37891;SDS011;45797;47.466;9.486;2023-05-18T22:30:06;3.92;;;1.90;;
37891;SDS011;45797;47.466;9.486;2023-05-18T22:35:07;3.58;;;2.00;;
37891;SDS011;45797;47.466;9.486;2023-05-18T22:40:09;5.85;;;2.00;;
37891;SDS011;45797;47.466;9.486;2023-05-18T22:45:10;5.78;;;2.05;;
37891;SDS011;45797;47.466;9.486;2023-05-18T22:50:10;5.03;;;2.08;;
37891;SDS011;45797;47.466;9.486;2023-05-18T22:55:10;4.63;;;2.00;;
37891;SDS011;45797;47.466;9.486;2023-05-18T23:00:21;3.72;;;1.80;;
37891;SDS011;45797;47.466;9.486;2023-05-18T23:05:29;3.55;;;1.83;;
37891;SDS011;45797;47.466;9.486;2023-05-18T23:15:46;4.95;;;2.00;;
37891;SDS011;45797;47.466;9.486;2023-05-18T23:20:57;3.28;;;1.95;;
37891;SDS011;45797;47.466;9.486;2023-05-18T23:25:58;4.80;;;2.17;;
37891;SDS011;45797;47.466;9.486;2023-05-18T23:31:09;4.80;;;2.13;;
37891;SDS011;45797;47.466;9.486;2023-05-18T23:36:09;4.00;;;2.00;;
37891;SDS011;45797;47.466;9.486;2023-05-18T23:41:12;3.05;;;1.95;;
37891;SDS011;45797;47.466;9.486;2023-05-18T23:51:17;3.42;;;2.03;;
37891;SDS011;45797;47.466;9.486;2023-05-18T23:56:23;4.07;;;1.90;;
